Fort Lauderdale, FL

2:07 PM EDT on October 01, 2016 (GMT -0400)
Victoria Park | | Change Station

Elev 23 ft 26.13 °N, 80.13 °W | Updated 16 seconds ago

Mostly Cloudy
Mostly Cloudy
86.0 °F
Feels Like 92 °F
N
0.2
Wind Variable Wind from East
Gusts 2.5 mph

Today
High -- | Low -- °F
--% Chance of Precip.
Yesterday
High -- | Low -- °F
Precip. -- in
Pressure 30.00 in
Visibility 10.0 miles
Clouds Few 2300 ft
Scattered Clouds 19000 ft
Mostly Cloudy 25000 ft
Heat Index 92 °F
Dew Point 72 °F
Humidity 62%
Rainfall 0.27 in
Snow Depth Not available.
7:13 AM 7:06 PM
New Moon, 1% visible
METAR KFLL 011753Z 09009KT 10SM FEW023 SCT190 BKN250 29/22 A3000 RMK AO2 SLP157 60002 T02890222 10289 20233 58012
Pressure 30.00 in
Visibility 10.0 miles
Clouds Few 2300 ft
Scattered Clouds 19000 ft
Mostly Cloudy 25000 ft
Heat Index 92 °F
Dew Point 72 °F
Humidity 62%
Rainfall 0.27 in
Snow Depth Not available.
7:13 AM 7:06 PM
New Moon, 1% visible
METAR KFLL 011753Z 09009KT 10SM FEW023 SCT190 BKN250 29/22 A3000 RMK AO2 SLP157 60002 T02890222 10289 20233 58012

10-Day Weather Forecast

Almanac

Astronomy

Oct. 01, 2016 Rise Set
Actual Time
Civil Twilight
Nautical Twilight
Astronomical Twilight
Moon
Length of Visible Light
Length of Day
Tomorrow will be .
, % of the Moon is Illuminated

Today's Extremes

State Highs State Lows

Community

WunderPhotos

Upload Photos

1,942,974 photos uploaded!

WunderBlog® & News

Nearby

Air Quality

  Air Quality AQ Index Pollutant
Not available.

Snow Depth

Station Depth Elevation

Earthquake Activity

City Distance Mag. Time & Date
Minimum magnitude displayed is 2.5.

Coastal Water Temperatures

Place Temperature

Stations

Nearby Weather Stations

Station Location Temp. Windchill Dew Point Humidity Wind Precip. Elev Updated Type
                   

Watches & Warnings

There are currently no watches in effect.